logo
Search for airport 
image banner adimage banner adimage banner ad
image banner ad

HKKI - Kisumu

Located in Kisumu, Kenya

ICAO - HKKI, IATA - KIS

Data provided by Airmate  

General information

Coordinates: S0°5'9" E34°43'44"
Elevation is 3795 feet MSL.
Magnetic variation is 1° East
View others Airports in Nyanza Province

Operational data

Special qualification required
Current time UTC:
Current local time:
Weather
TAF: TAF HKKI 132300Z 1400/1506 VRB03KT 9999 -TSRA FEW020CB SCT021 BKN080 TEMPO 1400/1403 NSW SCT018 BKN020 BECMG 1407/1410 23010KT NSW FEW025CB BKN080 TEMPO 1415/1419 VRB10KT -TSRA FEW022CB SCT023 BKN080 BECMG 1421/1424 VRB03KT NSW FEW020CB BKN080
View NOTAMs / SUP AIP / TFR affecting this airport [VIEW]
Communications frequencies: [VIEW]

Runways:

RWY identifierQFULength (ft)Width (ft)SurfaceLDA (ft)
0662°9350146ASPH9843
24242°9350146ASPH10312

Airport contact information

Satellite view of HKKI